createdAt,value
2023-04-17T00:02:41.824Z,7.06
2023-04-17T00:07:49.613Z,7.06
2023-04-17T00:12:56.102Z,7.08
2023-04-17T00:18:04.102Z,7.05
2023-04-17T00:23:10.733Z,6.98
2023-04-17T00:28:16.946Z,7.01
2023-04-17T00:33:25.195Z,6.93
2023-04-17T00:38:31.905Z,6.89
2023-04-17T00:43:38.684Z,6.84
2023-04-17T00:48:46.689Z,6.85
2023-04-17T00:53:53.326Z,6.89
2023-04-17T00:59:00.699Z,6.90
2023-04-17T01:04:10.479Z,6.93
2023-04-17T01:09:17.536Z,6.92
2023-04-17T01:14:24.074Z,6.91
2023-04-17T01:19:33.107Z,6.87
2023-04-17T01:24:40.907Z,6.84
2023-04-17T01:29:48.625Z,6.80
2023-04-17T01:34:56.125Z,6.75
2023-04-17T01:40:07.357Z,6.74
2023-04-17T01:45:14.293Z,6.71
2023-04-17T01:50:21.171Z,6.68
2023-04-17T01:55:29.201Z,6.70
2023-04-17T02:00:35.517Z,6.69
2023-04-17T02:05:42.042Z,6.68
2023-04-17T02:10:50.160Z,6.67
2023-04-17T02:15:57.489Z,6.68
2023-04-17T02:21:27.904Z,6.69
2023-04-17T02:26:37.098Z,6.71
2023-04-17T02:31:44.938Z,6.81
2023-04-17T02:36:51.755Z,6.79
2023-04-17T02:42:02.449Z,6.75
2023-04-17T02:47:09.264Z,6.76
2023-04-17T02:52:15.637Z,6.78
2023-04-17T02:57:23.451Z,6.79
2023-04-17T03:02:32.363Z,6.80
2023-04-17T03:07:38.769Z,6.83
2023-04-17T03:12:46.718Z,6.87
2023-04-17T03:17:54.245Z,6.86
2023-04-17T03:23:01.005Z,6.87
2023-04-17T03:28:08.851Z,6.86
2023-04-17T03:33:16.702Z,6.87
2023-04-17T03:38:24.208Z,6.86
2023-04-17T03:43:33.490Z,6.84
2023-04-17T03:48:39.998Z,6.86
2023-04-17T03:53:46.626Z,6.88
2023-04-17T03:58:55.360Z,6.89
2023-04-17T04:04:03.174Z,6.91
2023-04-17T04:09:10.868Z,6.93
2023-04-17T04:14:18.742Z,7.00
2023-04-17T04:19:28.108Z,7.02
2023-04-17T04:24:35.576Z,7.02
2023-04-17T04:29:45.974Z,7.05
2023-04-17T04:34:53.476Z,7.08
2023-04-17T04:40:04.834Z,7.11
2023-04-17T04:45:13.560Z,7.14
2023-04-17T04:50:22.272Z,7.18
2023-04-17T04:55:30.938Z,7.18
2023-04-17T05:00:40.068Z,7.28
2023-04-17T05:05:50.794Z,7.32
2023-04-17T05:10:59.751Z,7.36
2023-04-17T05:16:08.627Z,7.40
2023-04-17T05:21:14.930Z,7.42
2023-04-17T05:26:22.989Z,7.46
2023-04-17T05:31:32.931Z,7.51
2023-04-17T05:36:43.103Z,7.53
2023-04-17T05:41:49.688Z,7.61
2023-04-17T05:47:00.404Z,7.64
2023-04-17T05:52:07.470Z,7.71
2023-04-17T05:57:18.515Z,7.77
2023-04-17T06:02:26.601Z,7.82
2023-04-17T06:07:36.154Z,7.90
2023-04-17T06:12:43.136Z,7.92
2023-04-17T06:17:53.091Z,8.04
2023-04-17T06:22:59.735Z,8.10
2023-04-17T06:28:06.765Z,8.16
2023-04-17T06:33:15.224Z,8.22
2023-04-17T06:38:22.857Z,8.32
2023-04-17T06:43:29.215Z,8.38
2023-04-17T06:48:37.847Z,8.42
2023-04-17T06:53:44.452Z,8.42
2023-04-17T06:58:50.950Z,8.41
2023-04-17T07:03:59.330Z,8.31
2023-04-17T07:09:06.020Z,8.44
2023-04-17T07:14:12.999Z,8.54
2023-04-17T07:19:21.445Z,8.65
2023-04-17T07:24:28.158Z,8.70
2023-04-17T07:29:35.821Z,8.79
2023-04-17T07:34:43.747Z,9.01
2023-04-17T07:39:51.673Z,9.06
2023-04-17T07:44:59.313Z,9.14
2023-04-17T07:50:08.944Z,9.26
2023-04-17T07:55:15.266Z,9.26
2023-04-17T08:00:22.241Z,9.50
2023-04-17T08:05:31.203Z,9.80
2023-04-17T08:10:37.770Z,9.82
2023-04-17T08:15:44.322Z,9.87
2023-04-17T08:20:52.744Z,10.03
2023-04-17T08:25:58.946Z,10.17
2023-04-17T08:31:05.345Z,10.21
2023-04-17T08:36:14.650Z,10.34
2023-04-17T08:41:25.885Z,10.37
2023-04-17T08:46:34.972Z,10.55
2023-04-17T08:51:43.496Z,10.71
2023-04-17T08:56:50.025Z,10.79
2023-04-17T09:02:04.401Z,10.91
2023-04-17T09:07:14.131Z,11.08
2023-04-17T09:12:21.505Z,11.05
2023-04-17T09:17:38.094Z,11.19
2023-04-17T09:22:46.857Z,11.29
2023-04-17T09:27:53.204Z,11.33
2023-04-17T09:33:10.264Z,11.30
2023-04-17T09:38:18.557Z,11.41
2023-04-17T09:43:25.124Z,11.39
2023-04-17T09:48:31.764Z,11.53
2023-04-17T09:53:40.318Z,11.56
2023-04-17T09:58:46.786Z,11.59
2023-04-17T10:03:53.455Z,11.64
2023-04-17T10:09:02.244Z,11.69
2023-04-17T10:14:17.150Z,11.48
2023-04-17T10:19:31.326Z,11.42
2023-04-17T10:24:39.632Z,11.65
2023-04-17T10:29:55.501Z,11.83
2023-04-17T10:35:04.432Z,12.11
2023-04-17T10:40:15.324Z,12.14
2023-04-17T10:45:22.250Z,12.27
2023-04-17T10:50:31.158Z,12.22
2023-04-17T10:55:51.563Z,12.21
2023-04-17T11:00:58.103Z,12.42
2023-04-17T11:06:05.748Z,12.45
2023-04-17T11:11:15.471Z,12.29
2023-04-17T11:16:23.687Z,12.48
2023-04-17T11:21:30.117Z,12.57
2023-04-17T11:26:45.719Z,12.49
2023-04-17T11:31:54.986Z,12.63
2023-04-17T11:37:03.535Z,12.64
2023-04-17T11:42:11.608Z,12.80
2023-04-17T11:47:21.261Z,12.94
2023-04-17T11:52:31.150Z,13.04
2023-04-17T11:57:45.281Z,13.16
2023-04-17T12:02:52.471Z,13.15
2023-04-17T12:08:04.723Z,13.13
2023-04-17T12:13:13.812Z,13.17
2023-04-17T12:18:20.072Z,13.49
2023-04-17T12:23:27.030Z,13.67
2023-04-17T12:28:35.028Z,13.99
2023-04-17T12:33:41.873Z,13.86
2023-04-17T12:38:48.358Z,13.97
2023-04-17T12:44:00.435Z,13.78
2023-04-17T12:49:07.554Z,13.94
2023-04-17T12:54:14.589Z,13.88
2023-04-17T12:59:22.808Z,14.06
2023-04-17T13:04:29.665Z,13.99
2023-04-17T13:09:36.535Z,14.04
2023-04-17T13:14:45.056Z,14.42
2023-04-17T13:19:51.503Z,14.14
2023-04-17T13:24:57.865Z,13.76
2023-04-17T13:30:06.797Z,13.58
2023-04-17T13:35:13.871Z,13.47
2023-04-17T13:40:20.318Z,13.46
2023-04-17T13:45:28.218Z,13.47
2023-04-17T13:50:34.664Z,13.41
2023-04-17T13:55:41.251Z,13.33
2023-04-17T14:00:49.261Z,13.45
2023-04-17T14:05:56.991Z,13.36
2023-04-17T14:11:04.678Z,13.34
2023-04-17T14:16:12.915Z,13.18
2023-04-17T14:21:22.186Z,13.11
2023-04-17T14:26:28.700Z,13.13
2023-04-17T14:31:36.856Z,12.98
2023-04-17T14:36:43.858Z,12.83
2023-04-17T14:41:50.729Z,12.69
2023-04-17T14:46:58.885Z,12.63
2023-04-17T14:52:05.472Z,12.63
2023-04-17T14:57:12.296Z,12.67
2023-04-17T15:02:20.430Z,12.72
2023-04-17T15:07:26.995Z,12.75
2023-04-17T15:12:33.548Z,12.77
2023-04-17T15:17:42.871Z,12.79
2023-04-17T15:22:52.795Z,12.80
2023-04-17T15:27:59.046Z,12.81
2023-04-17T15:33:10.531Z,12.84
2023-04-17T15:38:16.914Z,12.91
2023-04-17T15:43:23.603Z,12.98
2023-04-17T15:48:31.659Z,13.12
2023-04-17T15:53:38.171Z,13.17
2023-04-17T15:58:45.861Z,13.12
2023-04-17T16:03:54.694Z,13.04
2023-04-17T16:09:01.961Z,12.89
2023-04-17T16:14:09.002Z,12.84
2023-04-17T16:19:17.115Z,12.75
2023-04-17T16:24:23.788Z,12.70
2023-04-17T16:29:30.798Z,12.68
2023-04-17T16:34:39.280Z,12.67
2023-04-17T16:39:46.120Z,12.60
2023-04-17T16:44:52.934Z,12.49
2023-04-17T16:50:01.111Z,12.44
2023-04-17T16:55:11.272Z,12.37
2023-04-17T17:00:19.545Z,12.33
2023-04-17T17:05:28.281Z,12.26
2023-04-17T17:10:35.108Z,12.22
2023-04-17T17:15:42.326Z,12.13
2023-04-17T17:20:51.220Z,12.06
2023-04-17T17:25:57.812Z,12.03
2023-04-17T17:31:06.242Z,11.97
2023-04-17T17:36:16.556Z,11.89
2023-04-17T17:41:23.700Z,11.87
2023-04-17T17:46:30.979Z,11.80
2023-04-17T17:51:39.729Z,11.71
2023-04-17T17:56:48.203Z,11.69
2023-04-17T18:01:55.715Z,11.58
2023-04-17T18:07:06.936Z,11.55
2023-04-17T18:12:19.359Z,11.46
2023-04-17T18:17:28.239Z,11.32
2023-04-17T18:22:38.866Z,11.27
2023-04-17T18:27:46.952Z,11.16
2023-04-17T18:32:57.107Z,11.10
2023-04-17T18:38:07.719Z,10.99
2023-04-17T18:43:16.035Z,10.92
2023-04-17T18:48:27.990Z,10.86
2023-04-17T18:53:37.860Z,10.81
2023-04-17T18:58:47.673Z,10.72
2023-04-17T19:03:55.911Z,10.68
2023-04-17T19:09:12.409Z,10.64
2023-04-17T19:14:20.688Z,10.57
2023-04-17T19:19:33.280Z,10.49
2023-04-17T19:24:43.261Z,10.47
2023-04-17T19:29:51.847Z,10.40
2023-04-17T19:35:03.550Z,10.38
2023-04-17T19:40:24.455Z,10.30
2023-04-17T19:45:36.563Z,10.29
2023-04-17T19:50:45.276Z,10.22
2023-04-17T19:55:55.694Z,10.19
2023-04-17T20:01:03.940Z,10.14
2023-04-17T20:06:13.289Z,10.11
2023-04-17T20:11:24.361Z,10.03
2023-04-17T20:16:32.507Z,10.00
2023-04-17T20:21:43.916Z,9.97
2023-04-17T20:26:53.745Z,9.91
2023-04-17T20:32:03.615Z,9.87
2023-04-17T20:37:10.901Z,9.82
2023-04-17T20:42:19.749Z,9.79
2023-04-17T20:47:26.650Z,9.77
2023-04-17T20:52:33.841Z,9.70
2023-04-17T20:57:42.180Z,9.65
2023-04-17T21:02:48.802Z,9.65
2023-04-17T21:07:58.057Z,9.62
2023-04-17T21:13:06.438Z,9.57
2023-04-17T21:18:12.894Z,9.53
2023-04-17T21:23:19.340Z,9.51
2023-04-17T21:28:27.244Z,9.52
2023-04-17T21:33:33.563Z,9.49
2023-04-17T21:38:40.869Z,9.46
2023-04-17T21:43:49.353Z,9.43
2023-04-17T21:48:56.240Z,9.35
2023-04-17T21:54:02.807Z,9.35
2023-04-17T21:59:10.982Z,9.34
2023-04-17T22:04:17.290Z,9.29
2023-04-17T22:09:24.394Z,9.30
2023-04-17T22:14:32.382Z,9.28
2023-04-17T22:19:38.817Z,9.24
2023-04-17T22:25:20.818Z,9.22
2023-04-17T22:31:05.383Z,9.23
2023-04-17T22:36:49.801Z,9.21
2023-04-17T22:42:50.452Z,9.21
2023-04-17T22:49:11.593Z,9.16
2023-04-17T22:54:36.340Z,9.12
2023-04-17T23:00:18.515Z,9.10
2023-04-17T23:06:02.085Z,9.06
2023-04-17T23:11:27.153Z,9.05
2023-04-17T23:16:33.769Z,9.06
2023-04-17T23:21:41.855Z,8.95
2023-04-17T23:26:49.063Z,8.87
2023-04-17T23:31:55.728Z,8.83
2023-04-17T23:37:03.644Z,8.74
2023-04-17T23:42:10.036Z,8.63
2023-04-17T23:47:16.391Z,8.56
2023-04-17T23:52:24.076Z,8.57
2023-04-17T23:57:34.878Z,8.53
